Taylorsville, Indiana
Current Conditions -  °F | °C
As of 3:54 PM on Wednesday 17 Dec 2014 (Local Time) from KBAK Reporting Station
Overcast Overcast  
Wind Chill: 20°   Ceiling: 1500
Heat Index: 28°   Visibility: 10mi
Dew Point: 25°   Wind: 8mph
Humidity: 86%   Direction: 260°W
Pressure: 30.25"   Gusts: NA
Location:  39.3°N, 85.95°W
Report Text: KBAK 172054Z 26007KT 10SM OVC015 M02/M04 A3025
Loading
Personal Weather Stations






























Interactive Weather Map New forecast layout! Learn more

10-Day Weather Forecast

Advertisements
Track Severe Weather on mobile